sensor_id;sensor_type;location;lat;lon;timestamp;P1;durP1;ratioP1;P2;durP2;ratioP2
351;SDS011;164;50.784;6.496;2022-09-29T00:02:18;8.85;;;8.35;;
351;SDS011;164;50.784;6.496;2022-09-29T00:04:45;8.00;;;7.60;;
351;SDS011;164;50.784;6.496;2022-09-29T00:07:12;7.93;;;7.53;;
351;SDS011;164;50.784;6.496;2022-09-29T00:09:39;7.93;;;7.53;;
351;SDS011;164;50.784;6.496;2022-09-29T00:12:06;8.27;;;7.88;;
351;SDS011;164;50.784;6.496;2022-09-29T00:14:34;7.90;;;7.50;;
351;SDS011;164;50.784;6.496;2022-09-29T00:17:01;9.23;;;8.73;;
351;SDS011;164;50.784;6.496;2022-09-29T00:19:29;9.60;;;9.10;;
351;SDS011;164;50.784;6.496;2022-09-29T00:21:57;8.00;;;7.60;;
351;SDS011;164;50.784;6.496;2022-09-29T00:24:28;8.25;;;7.85;;
351;SDS011;164;50.784;6.496;2022-09-29T00:26:55;7.07;;;6.68;;
351;SDS011;164;50.784;6.496;2022-09-29T00:29:23;8.95;;;8.45;;
351;SDS011;164;50.784;6.496;2022-09-29T00:31:51;8.35;;;7.93;;
351;SDS011;164;50.784;6.496;2022-09-29T00:34:18;8.77;;;8.27;;
351;SDS011;164;50.784;6.496;2022-09-29T00:36:45;8.68;;;8.18;;
351;SDS011;164;50.784;6.496;2022-09-29T00:39:12;9.13;;;8.63;;
351;SDS011;164;50.784;6.496;2022-09-29T00:41:40;9.05;;;8.55;;
351;SDS011;164;50.784;6.496;2022-09-29T00:47:09;9.63;;;9.13;;
351;SDS011;164;50.784;6.496;2022-09-29T00:49:41;10.00;;;9.50;;
351;SDS011;164;50.784;6.496;2022-09-29T00:52:11;9.90;;;9.40;;
351;SDS011;164;50.784;6.496;2022-09-29T00:54:42;9.75;;;9.25;;
351;SDS011;164;50.784;6.496;2022-09-29T00:57:16;9.85;;;9.35;;
351;SDS011;164;50.784;6.496;2022-09-29T00:59:46;9.80;;;9.30;;
351;SDS011;164;50.784;6.496;2022-09-29T01:02:19;9.82;;;9.32;;
351;SDS011;164;50.784;6.496;2022-09-29T01:04:54;9.63;;;9.13;;
351;SDS011;164;50.784;6.496;2022-09-29T01:07:22;10.10;;;9.60;;
351;SDS011;164;50.784;6.496;2022-09-29T01:09:50;9.68;;;9.18;;
351;SDS011;164;50.784;6.496;2022-09-29T01:12:20;10.98;;;10.38;;
351;SDS011;164;50.784;6.496;2022-09-29T01:14:48;9.75;;;9.25;;
351;SDS011;164;50.784;6.496;2022-09-29T01:17:16;10.98;;;10.38;;
351;SDS011;164;50.784;6.496;2022-09-29T01:19:46;9.90;;;9.40;;
351;SDS011;164;50.784;6.496;2022-09-29T01:22:22;11.40;;;10.80;;
351;SDS011;164;50.784;6.496;2022-09-29T01:25:09;9.68;;;9.18;;
351;SDS011;164;50.784;6.496;2022-09-29T01:27:59;12.50;;;9.77;;
351;SDS011;164;50.784;6.496;2022-09-29T01:36:00;10.63;;;10.02;;
351;SDS011;164;50.784;6.496;2022-09-29T01:38:38;9.23;;;8.73;;
351;SDS011;164;50.784;6.496;2022-09-29T01:41:17;10.38;;;9.85;;
351;SDS011;164;50.784;6.496;2022-09-29T01:43:54;9.60;;;9.10;;
351;SDS011;164;50.784;6.496;2022-09-29T01:46:26;10.20;;;9.70;;
351;SDS011;164;50.784;6.496;2022-09-29T01:48:56;11.55;;;10.95;;
351;SDS011;164;50.784;6.496;2022-09-29T01:51:29;10.75;;;10.15;;
351;SDS011;164;50.784;6.496;2022-09-29T01:54:07;11.68;;;11.07;;
351;SDS011;164;50.784;6.496;2022-09-29T01:56:39;9.27;;;8.77;;
351;SDS011;164;50.784;6.496;2022-09-29T01:59:13;10.55;;;9.98;;
351;SDS011;164;50.784;6.496;2022-09-29T02:01:43;10.63;;;10.05;;
351;SDS011;164;50.784;6.496;2022-09-29T02:04:13;9.85;;;9.35;;
351;SDS011;164;50.784;6.496;2022-09-29T02:06:47;10.05;;;9.55;;
351;SDS011;164;50.784;6.496;2022-09-29T02:09:21;14.38;;;11.27;;
351;SDS011;164;50.784;6.496;2022-09-29T02:11:52;10.68;;;10.07;;
351;SDS011;164;50.784;6.496;2022-09-29T02:14:22;10.82;;;10.23;;
351;SDS011;164;50.784;6.496;2022-09-29T02:16:54;10.85;;;10.25;;
351;SDS011;164;50.784;6.496;2022-09-29T02:19:28;10.43;;;9.88;;
351;SDS011;164;50.784;6.496;2022-09-29T02:21:58;10.60;;;10.02;;
351;SDS011;164;50.784;6.496;2022-09-29T02:24:25;13.10;;;11.30;;
351;SDS011;164;50.784;6.496;2022-09-29T02:26:53;10.68;;;10.07;;
351;SDS011;164;50.784;6.496;2022-09-29T02:29:20;11.38;;;10.77;;
351;SDS011;164;50.784;6.496;2022-09-29T02:31:47;10.15;;;9.68;;
351;SDS011;164;50.784;6.496;2022-09-29T02:34:15;11.20;;;10.60;;
351;SDS011;164;50.784;6.496;2022-09-29T02:36:47;11.52;;;10.93;;
351;SDS011;164;50.784;6.496;2022-09-29T02:39:26;11.95;;;11.35;;
351;SDS011;164;50.784;6.496;2022-09-29T02:42:05;11.10;;;10.50;;
351;SDS011;164;50.784;6.496;2022-09-29T02:44:59;11.18;;;10.57;;
351;SDS011;164;50.784;6.496;2022-09-29T02:47:44;11.30;;;10.70;;
351;SDS011;164;50.784;6.496;2022-09-29T02:50:27;11.90;;;11.30;;
351;SDS011;164;50.784;6.496;2022-09-29T02:53:17;11.93;;;11.32;;
351;SDS011;164;50.784;6.496;2022-09-29T02:55:56;12.10;;;11.50;;
351;SDS011;164;50.784;6.496;2022-09-29T02:58:29;12.00;;;11.40;;
351;SDS011;164;50.784;6.496;2022-09-29T03:01:01;11.77;;;11.18;;
351;SDS011;164;50.784;6.496;2022-09-29T03:03:29;11.82;;;11.25;;
351;SDS011;164;50.784;6.496;2022-09-29T03:05:56;11.85;;;11.25;;
351;SDS011;164;50.784;6.496;2022-09-29T03:08:24;12.00;;;11.05;;
351;SDS011;164;50.784;6.496;2022-09-29T03:10:51;10.88;;;10.27;;
351;SDS011;164;50.784;6.496;2022-09-29T03:13:19;10.98;;;10.38;;
351;SDS011;164;50.784;6.496;2022-09-29T03:15:46;11.50;;;10.90;;
351;SDS011;164;50.784;6.496;2022-09-29T03:18:13;11.40;;;10.80;;
351;SDS011;164;50.784;6.496;2022-09-29T03:20:40;11.00;;;10.40;;
351;SDS011;164;50.784;6.496;2022-09-29T03:23:06;11.48;;;10.77;;
351;SDS011;164;50.784;6.496;2022-09-29T03:25:33;11.73;;;11.13;;
351;SDS011;164;50.784;6.496;2022-09-29T03:28:00;12.48;;;11.65;;
351;SDS011;164;50.784;6.496;2022-09-29T03:30:29;12.50;;;11.85;;
351;SDS011;164;50.784;6.496;2022-09-29T03:38:52;13.73;;;13.02;;
351;SDS011;164;50.784;6.496;2022-09-29T03:41:19;12.75;;;10.90;;
351;SDS011;164;50.784;6.496;2022-09-29T03:43:46;12.02;;;11.43;;
351;SDS011;164;50.784;6.496;2022-09-29T03:46:14;12.45;;;11.82;;
351;SDS011;164;50.784;6.496;2022-09-29T03:48:41;11.82;;;11.23;;
351;SDS011;164;50.784;6.496;2022-09-29T03:51:08;12.45;;;11.75;;
351;SDS011;164;50.784;6.496;2022-09-29T03:53:35;13.15;;;12.45;;
351;SDS011;164;50.784;6.496;2022-09-29T03:56:02;13.35;;;11.90;;
351;SDS011;164;50.784;6.496;2022-09-29T03:58:30;13.63;;;12.93;;
351;SDS011;164;50.784;6.496;2022-09-29T04:00:57;11.15;;;10.55;;
351;SDS011;164;50.784;6.496;2022-09-29T04:03:26;11.15;;;10.55;;
351;SDS011;164;50.784;6.496;2022-09-29T04:05:54;12.93;;;12.23;;
351;SDS011;164;50.784;6.496;2022-09-29T04:08:20;11.77;;;11.18;;
351;SDS011;164;50.784;6.496;2022-09-29T04:10:47;13.85;;;13.15;;
351;SDS011;164;50.784;6.496;2022-09-29T04:13:14;13.18;;;12.48;;
351;SDS011;164;50.784;6.496;2022-09-29T04:15:41;13.48;;;12.77;;
351;SDS011;164;50.784;6.496;2022-09-29T04:18:08;12.93;;;10.93;;
351;SDS011;164;50.784;6.496;2022-09-29T04:20:37;10.93;;;10.32;;
351;SDS011;164;50.784;6.496;2022-09-29T04:23:04;12.18;;;11.57;;
351;SDS011;164;50.784;6.496;2022-09-29T04:25:31;12.52;;;11.90;;
351;SDS011;164;50.784;6.496;2022-09-29T04:27:58;12.32;;;11.73;;
351;SDS011;164;50.784;6.496;2022-09-29T04:30:26;14.32;;;13.63;;
351;SDS011;164;50.784;6.496;2022-09-29T04:32:52;14.15;;;13.45;;
351;SDS011;164;50.784;6.496;2022-09-29T04:35:20;14.30;;;13.60;;
351;SDS011;164;50.784;6.496;2022-09-29T04:37:48;16.13;;;12.95;;
351;SDS011;164;50.784;6.496;2022-09-29T04:40:19;13.82;;;13.13;;
351;SDS011;164;50.784;6.496;2022-09-29T04:42:46;13.55;;;12.85;;
351;SDS011;164;50.784;6.496;2022-09-29T04:45:12;13.73;;;12.98;;
351;SDS011;164;50.784;6.496;2022-09-29T04:47:39;13.68;;;12.82;;
351;SDS011;164;50.784;6.496;2022-09-29T04:50:06;14.02;;;13.32;;
351;SDS011;164;50.784;6.496;2022-09-29T04:52:34;13.38;;;12.68;;
351;SDS011;164;50.784;6.496;2022-09-29T04:55:03;13.77;;;13.07;;
351;SDS011;164;50.784;6.496;2022-09-29T04:57:35;16.52;;;13.25;;
351;SDS011;164;50.784;6.496;2022-09-29T05:00:02;12.75;;;12.07;;
351;SDS011;164;50.784;6.496;2022-09-29T05:02:30;13.77;;;13.10;;
351;SDS011;164;50.784;6.496;2022-09-29T05:04:57;12.02;;;11.45;;
351;SDS011;164;50.784;6.496;2022-09-29T05:07:24;13.55;;;12.85;;
351;SDS011;164;50.784;6.496;2022-09-29T05:09:51;13.50;;;12.80;;
351;SDS011;164;50.784;6.496;2022-09-29T05:12:19;13.52;;;12.82;;
351;SDS011;164;50.784;6.496;2022-09-29T05:14:46;14.15;;;13.45;;
351;SDS011;164;50.784;6.496;2022-09-29T05:17:13;14.10;;;13.40;;
351;SDS011;164;50.784;6.496;2022-09-29T05:19:39;13.55;;;12.85;;
351;SDS011;164;50.784;6.496;2022-09-29T05:22:06;12.52;;;11.63;;
351;SDS011;164;50.784;6.496;2022-09-29T05:24:33;13.35;;;12.65;;
351;SDS011;164;50.784;6.496;2022-09-29T05:27:00;13.25;;;12.55;;
351;SDS011;164;50.784;6.496;2022-09-29T05:29:28;12.63;;;11.98;;
351;SDS011;164;50.784;6.496;2022-09-29T05:31:55;13.25;;;12.55;;
351;SDS011;164;50.784;6.496;2022-09-29T05:34:22;11.23;;;10.63;;
351;SDS011;164;50.784;6.496;2022-09-29T05:36:49;13.13;;;12.43;;
351;SDS011;164;50.784;6.496;2022-09-29T05:39:16;14.75;;;12.45;;
351;SDS011;164;50.784;6.496;2022-09-29T05:41:44;13.25;;;11.73;;
351;SDS011;164;50.784;6.496;2022-09-29T05:44:13;13.57;;;12.25;;
351;SDS011;164;50.784;6.496;2022-09-29T05:46:42;10.18;;;9.68;;
351;SDS011;164;50.784;6.496;2022-09-29T05:49:08;12.82;;;12.13;;
351;SDS011;164;50.784;6.496;2022-09-29T05:51:35;11.85;;;10.45;;
351;SDS011;164;50.784;6.496;2022-09-29T05:54:02;11.18;;;10.57;;
351;SDS011;164;50.784;6.496;2022-09-29T05:56:30;10.60;;;9.60;;
351;SDS011;164;50.784;6.496;2022-09-29T05:58:56;13.98;;;11.70;;
351;SDS011;164;50.784;6.496;2022-09-29T06:01:25;13.90;;;11.15;;
351;SDS011;164;50.784;6.496;2022-09-29T06:03:54;14.00;;;13.30;;
351;SDS011;164;50.784;6.496;2022-09-29T06:06:22;11.48;;;10.90;;
351;SDS011;164;50.784;6.496;2022-09-29T06:08:50;12.70;;;12.05;;
351;SDS011;164;50.784;6.496;2022-09-29T06:11:19;13.52;;;12.85;;
351;SDS011;164;50.784;6.496;2022-09-29T06:13:48;13.00;;;12.30;;
351;SDS011;164;50.784;6.496;2022-09-29T06:16:17;12.25;;;11.65;;
351;SDS011;164;50.784;6.496;2022-09-29T06:18:45;12.82;;;12.13;;
351;SDS011;164;50.784;6.496;2022-09-29T06:21:14;13.80;;;13.10;;
351;SDS011;164;50.784;6.496;2022-09-29T06:23:42;13.70;;;13.00;;
351;SDS011;164;50.784;6.496;2022-09-29T06:26:11;14.07;;;13.38;;
351;SDS011;164;50.784;6.496;2022-09-29T06:28:39;14.20;;;12.88;;
351;SDS011;164;50.784;6.496;2022-09-29T06:31:07;13.77;;;13.07;;
351;SDS011;164;50.784;6.496;2022-09-29T06:33:36;13.20;;;12.50;;
351;SDS011;164;50.784;6.496;2022-09-29T06:36:04;12.95;;;12.25;;
351;SDS011;164;50.784;6.496;2022-09-29T06:38:52;13.48;;;12.77;;
351;SDS011;164;50.784;6.496;2022-09-29T06:41:19;13.80;;;13.10;;
351;SDS011;164;50.784;6.496;2022-09-29T06:43:46;12.73;;;12.02;;
351;SDS011;164;50.784;6.496;2022-09-29T06:46:13;14.60;;;13.90;;
351;SDS011;164;50.784;6.496;2022-09-29T06:48:40;13.50;;;12.80;;
351;SDS011;164;50.784;6.496;2022-09-29T06:51:07;13.95;;;13.25;;
351;SDS011;164;50.784;6.496;2022-09-29T06:53:34;13.68;;;12.98;;
351;SDS011;164;50.784;6.496;2022-09-29T06:56:02;14.07;;;13.38;;
351;SDS011;164;50.784;6.496;2022-09-29T06:58:29;13.85;;;13.15;;
351;SDS011;164;50.784;6.496;2022-09-29T07:00:58;13.50;;;12.80;;
351;SDS011;164;50.784;6.496;2022-09-29T07:03:25;13.95;;;13.25;;
351;SDS011;164;50.784;6.496;2022-09-29T07:05:52;14.35;;;13.65;;
351;SDS011;164;50.784;6.496;2022-09-29T07:08:19;13.13;;;12.43;;
351;SDS011;164;50.784;6.496;2022-09-29T07:10:46;13.10;;;12.40;;
351;SDS011;164;50.784;6.496;2022-09-29T07:13:14;13.98;;;13.27;;
351;SDS011;164;50.784;6.496;2022-09-29T07:15:41;11.77;;;11.18;;
351;SDS011;164;50.784;6.496;2022-09-29T07:18:08;12.70;;;12.00;;
351;SDS011;164;50.784;6.496;2022-09-29T07:20:35;12.20;;;11.60;;
351;SDS011;164;50.784;6.496;2022-09-29T07:23:02;12.02;;;10.80;;
351;SDS011;164;50.784;6.496;2022-09-29T07:25:28;10.50;;;9.95;;
351;SDS011;164;50.784;6.496;2022-09-29T07:27:55;9.75;;;9.25;;
351;SDS011;164;50.784;6.496;2022-09-29T07:30:23;10.63;;;10.05;;
351;SDS011;164;50.784;6.496;2022-09-29T07:32:51;9.45;;;8.95;;
351;SDS011;164;50.784;6.496;2022-09-29T07:35:19;9.77;;;9.25;;
351;SDS011;164;50.784;6.496;2022-09-29T07:37:49;10.35;;;9.43;;
351;SDS011;164;50.784;6.496;2022-09-29T07:40:17;9.52;;;9.02;;
351;SDS011;164;50.784;6.496;2022-09-29T07:42:44;9.82;;;9.32;;
351;SDS011;164;50.784;6.496;2022-09-29T07:45:10;8.85;;;8.35;;
351;SDS011;164;50.784;6.496;2022-09-29T07:47:39;9.63;;;9.13;;
351;SDS011;164;50.784;6.496;2022-09-29T07:50:06;8.50;;;8.05;;
351;SDS011;164;50.784;6.496;2022-09-29T07:52:33;7.95;;;7.55;;
351;SDS011;164;50.784;6.496;2022-09-29T07:55:00;8.27;;;7.88;;
351;SDS011;164;50.784;6.496;2022-09-29T07:57:27;9.07;;;8.43;;
351;SDS011;164;50.784;6.496;2022-09-29T07:59:54;8.77;;;8.27;;
351;SDS011;164;50.784;6.496;2022-09-29T08:02:22;9.18;;;8.68;;
351;SDS011;164;50.784;6.496;2022-09-29T08:04:51;9.10;;;8.60;;
351;SDS011;164;50.784;6.496;2022-09-29T08:07:18;9.70;;;9.20;;
351;SDS011;164;50.784;6.496;2022-09-29T08:09:45;7.70;;;7.30;;
351;SDS011;164;50.784;6.496;2022-09-29T08:12:13;12.02;;;8.00;;
351;SDS011;164;50.784;6.496;2022-09-29T08:14:40;8.65;;;8.15;;
351;SDS011;164;50.784;6.496;2022-09-29T08:17:07;10.60;;;8.20;;
351;SDS011;164;50.784;6.496;2022-09-29T08:19:34;8.30;;;7.88;;
351;SDS011;164;50.784;6.496;2022-09-29T08:22:02;8.10;;;7.80;;
351;SDS011;164;50.784;6.496;2022-09-29T08:24:29;7.30;;;6.90;;
351;SDS011;164;50.784;6.496;2022-09-29T08:26:56;8.50;;;8.02;;
351;SDS011;164;50.784;6.496;2022-09-29T08:29:23;7.05;;;6.57;;
351;SDS011;164;50.784;6.496;2022-09-29T08:31:50;6.63;;;6.22;;
351;SDS011;164;50.784;6.496;2022-09-29T08:34:17;8.75;;;6.40;;
351;SDS011;164;50.784;6.496;2022-09-29T08:36:44;7.82;;;6.55;;
351;SDS011;164;50.784;6.496;2022-09-29T08:39:13;6.80;;;5.70;;
351;SDS011;164;50.784;6.496;2022-09-29T08:41:45;6.07;;;5.28;;
351;SDS011;164;50.784;6.496;2022-09-29T08:44:18;6.95;;;5.30;;
351;SDS011;164;50.784;6.496;2022-09-29T08:46:51;6.00;;;4.97;;
351;SDS011;164;50.784;6.496;2022-09-29T08:49:23;6.30;;;5.95;;
351;SDS011;164;50.784;6.496;2022-09-29T08:51:54;6.10;;;5.80;;
351;SDS011;164;50.784;6.496;2022-09-29T08:54:29;6.15;;;5.20;;
351;SDS011;164;50.784;6.496;2022-09-29T08:56:58;5.50;;;5.22;;
351;SDS011;164;50.784;6.496;2022-09-29T08:59:26;5.70;;;5.40;;
351;SDS011;164;50.784;6.496;2022-09-29T09:02:00;6.07;;;5.78;;
351;SDS011;164;50.784;6.496;2022-09-29T09:07:38;6.88;;;6.47;;
351;SDS011;164;50.784;6.496;2022-09-29T09:10:16;7.43;;;6.78;;
351;SDS011;164;50.784;6.496;2022-09-29T09:13:06;6.85;;;6.45;;
351;SDS011;164;50.784;6.496;2022-09-29T09:16:04;6.55;;;6.15;;
351;SDS011;164;50.784;6.496;2022-09-29T09:18:46;6.18;;;5.88;;
351;SDS011;164;50.784;6.496;2022-09-29T09:21:26;6.53;;;6.10;;
351;SDS011;164;50.784;6.496;2022-09-29T09:24:02;7.93;;;7.32;;
351;SDS011;164;50.784;6.496;2022-09-29T09:26:39;8.25;;;7.85;;
351;SDS011;164;50.784;6.496;2022-09-29T09:29:10;7.60;;;7.15;;
351;SDS011;164;50.784;6.496;2022-09-29T09:31:42;6.60;;;6.20;;
351;SDS011;164;50.784;6.496;2022-09-29T09:34:15;7.30;;;6.93;;
351;SDS011;164;50.784;6.496;2022-09-29T09:36:46;7.63;;;6.63;;
351;SDS011;164;50.784;6.496;2022-09-29T09:39:20;6.95;;;6.55;;
351;SDS011;164;50.784;6.496;2022-09-29T09:41:54;7.40;;;6.97;;
351;SDS011;164;50.784;6.496;2022-09-29T09:44:24;6.30;;;5.93;;
351;SDS011;164;50.784;6.496;2022-09-29T09:46:57;6.25;;;4.95;;
351;SDS011;164;50.784;6.496;2022-09-29T09:49:28;6.65;;;6.25;;
351;SDS011;164;50.784;6.496;2022-09-29T09:52:00;6.05;;;5.70;;
351;SDS011;164;50.784;6.496;2022-09-29T09:54:28;4.57;;;4.28;;
351;SDS011;164;50.784;6.496;2022-09-29T09:57:14;4.60;;;4.22;;
351;SDS011;164;50.784;6.496;2022-09-29T10:00:02;6.65;;;4.65;;
351;SDS011;164;50.784;6.496;2022-09-29T10:02:34;6.30;;;5.38;;
351;SDS011;164;50.784;6.496;2022-09-29T10:05:03;7.50;;;5.03;;
351;SDS011;164;50.784;6.496;2022-09-29T10:07:31;4.72;;;4.25;;
351;SDS011;164;50.784;6.496;2022-09-29T10:10:00;6.60;;;4.63;;
351;SDS011;164;50.784;6.496;2022-09-29T10:12:31;3.45;;;3.28;;
351;SDS011;164;50.784;6.496;2022-09-29T10:14:58;3.80;;;3.00;;
351;SDS011;164;50.784;6.496;2022-09-29T10:17:30;3.35;;;3.00;;
351;SDS011;164;50.784;6.496;2022-09-29T10:20:03;3.55;;;3.35;;
351;SDS011;164;50.784;6.496;2022-09-29T10:22:31;5.03;;;3.72;;
351;SDS011;164;50.784;6.496;2022-09-29T10:25:07;4.93;;;3.13;;
351;SDS011;164;50.784;6.496;2022-09-29T10:27:45;2.47;;;1.85;;
351;SDS011;164;50.784;6.496;2022-09-29T10:30:15;3.15;;;2.60;;
351;SDS011;164;50.784;6.496;2022-09-29T10:32:44;3.08;;;2.88;;
351;SDS011;164;50.784;6.496;2022-09-29T10:35:15;7.53;;;4.10;;
351;SDS011;164;50.784;6.496;2022-09-29T10:37:45;3.67;;;3.50;;
351;SDS011;164;50.784;6.496;2022-09-29T10:40:16;5.40;;;4.38;;
351;SDS011;164;50.784;6.496;2022-09-29T10:42:48;5.97;;;4.53;;
351;SDS011;164;50.784;6.496;2022-09-29T10:45:18;4.72;;;4.20;;
351;SDS011;164;50.784;6.496;2022-09-29T10:47:46;4.38;;;3.60;;
351;SDS011;164;50.784;6.496;2022-09-29T10:50:15;4.80;;;3.92;;
351;SDS011;164;50.784;6.496;2022-09-29T10:52:46;7.07;;;3.97;;
351;SDS011;164;50.784;6.496;2022-09-29T10:55:17;4.35;;;3.65;;
351;SDS011;164;50.784;6.496;2022-09-29T10:57:48;3.78;;;3.58;;
351;SDS011;164;50.784;6.496;2022-09-29T11:00:23;3.65;;;3.38;;
351;SDS011;164;50.784;6.496;2022-09-29T11:02:52;3.88;;;2.83;;
351;SDS011;164;50.784;6.496;2022-09-29T11:05:25;3.95;;;3.75;;
351;SDS011;164;50.784;6.496;2022-09-29T11:07:52;8.82;;;4.20;;
351;SDS011;164;50.784;6.496;2022-09-29T11:10:26;3.40;;;3.20;;
351;SDS011;164;50.784;6.496;2022-09-29T11:12:55;4.70;;;3.30;;
351;SDS011;164;50.784;6.496;2022-09-29T11:15:24;3.05;;;2.85;;
351;SDS011;164;50.784;6.496;2022-09-29T11:17:53;2.60;;;2.45;;
351;SDS011;164;50.784;6.496;2022-09-29T11:20:21;3.90;;;3.20;;
351;SDS011;164;50.784;6.496;2022-09-29T11:22:59;3.10;;;2.90;;
351;SDS011;164;50.784;6.496;2022-09-29T11:25:49;3.03;;;2.85;;
351;SDS011;164;50.784;6.496;2022-09-29T11:31:47;3.15;;;2.50;;
351;SDS011;164;50.784;6.496;2022-09-29T11:37:24;3.08;;;2.88;;
351;SDS011;164;50.784;6.496;2022-09-29T11:40:00;3.35;;;2.53;;
351;SDS011;164;50.784;6.496;2022-09-29T11:42:43;3.47;;;2.30;;
351;SDS011;164;50.784;6.496;2022-09-29T11:45:21;3.78;;;3.10;;
351;SDS011;164;50.784;6.496;2022-09-29T11:48:16;2.80;;;2.60;;
351;SDS011;164;50.784;6.496;2022-09-29T11:51:07;3.53;;;2.92;;
351;SDS011;164;50.784;6.496;2022-09-29T11:53:47;2.90;;;2.47;;
351;SDS011;164;50.784;6.496;2022-09-29T11:56:25;4.50;;;3.28;;
351;SDS011;164;50.784;6.496;2022-09-29T12:02:03;3.53;;;2.65;;
351;SDS011;164;50.784;6.496;2022-09-29T12:04:55;2.85;;;2.13;;
351;SDS011;164;50.784;6.496;2022-09-29T12:07:32;3.25;;;2.40;;
351;SDS011;164;50.784;6.496;2022-09-29T12:10:18;3.88;;;2.30;;
351;SDS011;164;50.784;6.496;2022-09-29T12:12:52;3.15;;;2.85;;
351;SDS011;164;50.784;6.496;2022-09-29T12:15:30;2.65;;;2.20;;
351;SDS011;164;50.784;6.496;2022-09-29T12:18:07;2.65;;;2.45;;
351;SDS011;164;50.784;6.496;2022-09-29T12:20:42;2.83;;;2.67;;
351;SDS011;164;50.784;6.496;2022-09-29T12:23:12;4.35;;;2.95;;
351;SDS011;164;50.784;6.496;2022-09-29T12:25:43;2.85;;;2.35;;
351;SDS011;164;50.784;6.496;2022-09-29T12:28:18;3.60;;;2.38;;
351;SDS011;164;50.784;6.496;2022-09-29T12:30:48;2.63;;;2.03;;
351;SDS011;164;50.784;6.496;2022-09-29T12:33:21;5.82;;;2.40;;
351;SDS011;164;50.784;6.496;2022-09-29T12:36:07;2.60;;;2.15;;
351;SDS011;164;50.784;6.496;2022-09-29T12:39:02;2.33;;;1.83;;
351;SDS011;164;50.784;6.496;2022-09-29T12:41:37;2.45;;;1.50;;
351;SDS011;164;50.784;6.496;2022-09-29T12:44:11;2.67;;;2.28;;
351;SDS011;164;50.784;6.496;2022-09-29T12:46:44;2.60;;;2.20;;
351;SDS011;164;50.784;6.496;2022-09-29T12:49:17;1.70;;;1.40;;
351;SDS011;164;50.784;6.496;2022-09-29T12:51:50;3.50;;;1.95;;
351;SDS011;164;50.784;6.496;2022-09-29T12:54:19;2.85;;;2.10;;
351;SDS011;164;50.784;6.496;2022-09-29T12:56:53;2.75;;;2.08;;
351;SDS011;164;50.784;6.496;2022-09-29T12:59:26;1.60;;;1.50;;
351;SDS011;164;50.784;6.496;2022-09-29T13:01:58;3.85;;;2.28;;
351;SDS011;164;50.784;6.496;2022-09-29T13:04:38;2.50;;;2.30;;
351;SDS011;164;50.784;6.496;2022-09-29T13:07:22;4.85;;;2.00;;
351;SDS011;164;50.784;6.496;2022-09-29T13:16:06;3.55;;;1.63;;
351;SDS011;164;50.784;6.496;2022-09-29T13:18:46;2.40;;;2.20;;
351;SDS011;164;50.784;6.496;2022-09-29T13:21:38;3.15;;;1.85;;
351;SDS011;164;50.784;6.496;2022-09-29T13:24:29;1.90;;;1.50;;
351;SDS011;164;50.784;6.496;2022-09-29T13:27:08;2.58;;;1.50;;
351;SDS011;164;50.784;6.496;2022-09-29T13:29:51;1.73;;;1.60;;
351;SDS011;164;50.784;6.496;2022-09-29T13:32:21;4.32;;;1.80;;
351;SDS011;164;50.784;6.496;2022-09-29T13:34:51;1.88;;;1.42;;
351;SDS011;164;50.784;6.496;2022-09-29T13:37:21;2.55;;;2.15;;
351;SDS011;164;50.784;6.496;2022-09-29T13:39:52;3.88;;;1.60;;
351;SDS011;164;50.784;6.496;2022-09-29T13:54:20;1.50;;;1.40;;
351;SDS011;164;50.784;6.496;2022-09-29T13:56:51;3.83;;;2.00;;
351;SDS011;164;50.784;6.496;2022-09-29T14:00:03;1.52;;;1.35;;
351;SDS011;164;50.784;6.496;2022-09-29T14:02:46;2.30;;;1.45;;
351;SDS011;164;50.784;6.496;2022-09-29T14:08:24;2.25;;;1.60;;
351;SDS011;164;50.784;6.496;2022-09-29T14:11:04;2.40;;;1.80;;
351;SDS011;164;50.784;6.496;2022-09-29T14:13:47;2.35;;;1.80;;
351;SDS011;164;50.784;6.496;2022-09-29T14:16:37;2.88;;;1.38;;
351;SDS011;164;50.784;6.496;2022-09-29T14:19:25;3.35;;;2.22;;
351;SDS011;164;50.784;6.496;2022-09-29T14:22:01;1.30;;;1.23;;
351;SDS011;164;50.784;6.496;2022-09-29T14:24:44;1.83;;;1.77;;
351;SDS011;164;50.784;6.496;2022-09-29T14:27:24;2.65;;;1.70;;
351;SDS011;164;50.784;6.496;2022-09-29T14:29:57;4.53;;;2.63;;
351;SDS011;164;50.784;6.496;2022-09-29T14:32:38;3.67;;;2.20;;
351;SDS011;164;50.784;6.496;2022-09-29T14:35:13;2.88;;;2.10;;
351;SDS011;164;50.784;6.496;2022-09-29T14:37:43;3.45;;;2.70;;
351;SDS011;164;50.784;6.496;2022-09-29T14:40:13;2.88;;;1.83;;
351;SDS011;164;50.784;6.496;2022-09-29T14:43:04;2.95;;;1.98;;
351;SDS011;164;50.784;6.496;2022-09-29T14:45:39;2.40;;;2.10;;
351;SDS011;164;50.784;6.496;2022-09-29T14:48:47;2.83;;;1.98;;
351;SDS011;164;50.784;6.496;2022-09-29T14:51:41;2.53;;;1.63;;
351;SDS011;164;50.784;6.496;2022-09-29T14:54:28;2.40;;;1.65;;
351;SDS011;164;50.784;6.496;2022-09-29T14:57:10;5.97;;;5.30;;
351;SDS011;164;50.784;6.496;2022-09-29T15:00:00;14.23;;;6.47;;
351;SDS011;164;50.784;6.496;2022-09-29T15:02:32;4.90;;;3.80;;
351;SDS011;164;50.784;6.496;2022-09-29T15:05:10;2.83;;;2.15;;
351;SDS011;164;50.784;6.496;2022-09-29T15:07:39;5.85;;;1.95;;
351;SDS011;164;50.784;6.496;2022-09-29T15:10:18;3.60;;;1.98;;
351;SDS011;164;50.784;6.496;2022-09-29T15:12:47;3.55;;;1.77;;
351;SDS011;164;50.784;6.496;2022-09-29T15:18:01;3.67;;;1.60;;
351;SDS011;164;50.784;6.496;2022-09-29T15:20:43;3.25;;;2.10;;
351;SDS011;164;50.784;6.496;2022-09-29T15:26:23;3.63;;;3.35;;
351;SDS011;164;50.784;6.496;2022-09-29T15:28:55;1.95;;;1.83;;
351;SDS011;164;50.784;6.496;2022-09-29T15:31:25;2.55;;;1.70;;
351;SDS011;164;50.784;6.496;2022-09-29T15:33:55;3.58;;;2.75;;
351;SDS011;164;50.784;6.496;2022-09-29T15:36:23;3.53;;;2.22;;
351;SDS011;164;50.784;6.496;2022-09-29T15:38:52;2.40;;;1.85;;
351;SDS011;164;50.784;6.496;2022-09-29T15:41:22;3.70;;;2.15;;
351;SDS011;164;50.784;6.496;2022-09-29T15:43:53;2.58;;;2.40;;
351;SDS011;164;50.784;6.496;2022-09-29T15:46:23;4.55;;;2.22;;
351;SDS011;164;50.784;6.496;2022-09-29T15:51:41;2.53;;;1.40;;
351;SDS011;164;50.784;6.496;2022-09-29T15:54:11;3.35;;;2.33;;
351;SDS011;164;50.784;6.496;2022-09-29T15:56:39;2.40;;;1.92;;
351;SDS011;164;50.784;6.496;2022-09-29T15:59:38;5.47;;;3.63;;
351;SDS011;164;50.784;6.496;2022-09-29T16:02:10;2.10;;;1.95;;
351;SDS011;164;50.784;6.496;2022-09-29T16:04:51;4.07;;;2.40;;
351;SDS011;164;50.784;6.496;2022-09-29T16:07:22;2.80;;;2.13;;
351;SDS011;164;50.784;6.496;2022-09-29T16:09:56;2.47;;;1.60;;
351;SDS011;164;50.784;6.496;2022-09-29T16:12:26;3.22;;;2.13;;
351;SDS011;164;50.784;6.496;2022-09-29T16:14:56;2.33;;;2.17;;
351;SDS011;164;50.784;6.496;2022-09-29T16:17:24;2.67;;;2.20;;
351;SDS011;164;50.784;6.496;2022-09-29T16:19:52;2.40;;;2.20;;
351;SDS011;164;50.784;6.496;2022-09-29T16:22:20;3.88;;;1.95;;
351;SDS011;164;50.784;6.496;2022-09-29T16:24:51;3.13;;;2.67;;
351;SDS011;164;50.784;6.496;2022-09-29T16:30:16;3.05;;;2.05;;
351;SDS011;164;50.784;6.496;2022-09-29T16:32:44;4.45;;;2.25;;
351;SDS011;164;50.784;6.496;2022-09-29T16:35:41;2.70;;;1.60;;
351;SDS011;164;50.784;6.496;2022-09-29T16:38:25;1.30;;;1.30;;
351;SDS011;164;50.784;6.496;2022-09-29T16:40:58;5.63;;;2.58;;
351;SDS011;164;50.784;6.496;2022-09-29T16:43:33;3.15;;;2.40;;
351;SDS011;164;50.784;6.496;2022-09-29T16:46:01;3.85;;;1.80;;
351;SDS011;164;50.784;6.496;2022-09-29T16:48:38;1.92;;;1.55;;
351;SDS011;164;50.784;6.496;2022-09-29T16:51:12;2.20;;;2.00;;
351;SDS011;164;50.784;6.496;2022-09-29T16:53:41;6.40;;;1.73;;
351;SDS011;164;50.784;6.496;2022-09-29T16:56:14;2.90;;;2.50;;
351;SDS011;164;50.784;6.496;2022-09-29T16:58:43;6.28;;;4.40;;
351;SDS011;164;50.784;6.496;2022-09-29T17:01:26;3.58;;;2.05;;
351;SDS011;164;50.784;6.496;2022-09-29T17:03:53;3.08;;;1.45;;
351;SDS011;164;50.784;6.496;2022-09-29T17:06:21;5.10;;;1.77;;